Terminal Aerodrome Forecast
Issued by NWS

Home | Current Version | Previous Version | Text Only | Print | Product List | Glossary On
Versions: 1 2 3 4 5 6 7 8 9 10 11 12 13 14 15 16 17 18 19 20 21 22 23 24 25 26 27 28 29
778
FTUS43 KDVN 110520
TAFCID
TAF
KCID 110520Z 1106/1206 35007KT P6SM SCT050 BKN090
     FM112000 20005KT P6SM BKN200
     FM120300 18005KT 3SM -SN BR OVC025=

USA.gov is the U.S. government's official web portal to all federal, state and local government web resources and services.